In Rescue
 
Open Full Screen Window  High Contrast Mode
Wind Gusting 00 knots
11
March 20, 2019 10:08 PM EDT
Present Weather: Light Snow
Weather Information
Wind Direction
  170 °
Wind Speed
  11 kt (13 mph)
Wind Gust
  00 kt (0 mph)
Altimeter
29.99 in
Visibility
4 SM
Temperature
04° C
39° F
Dewpoint
03° C
37° F
Humidity
93%
1hr Rain Fall
00.00 in.
24hr Rain Fall
00.01 in.
Sky Condition
Overcast @ 2,100 ft
MVFR

METAR KONZ 210208Z AUTO 17011KT 4SM -SN OVC021 04/03 A2999 RMK AO2 T00380028

FAA Disclaimer: The data displayed is for advisory purposes only and is not to be used for flight planning or operations.